sensor_id;sensor_type;location;lat;lon;timestamp;temperature;humidity
70170;DHT22;57543;45.442;9.212;2023-03-01T00:00:31;8.20;63.33
70170;DHT22;57543;45.442;9.212;2023-03-01T00:03:35;8.20;63.43
70170;DHT22;57543;45.442;9.212;2023-03-01T00:06:38;8.14;63.84
70170;DHT22;57543;45.442;9.212;2023-03-01T00:09:42;8.14;63.67
70170;DHT22;57543;45.442;9.212;2023-03-01T00:12:49;8.08;63.78
70170;DHT22;57543;45.442;9.212;2023-03-01T00:15:53;8.10;63.89
70170;DHT22;57543;45.442;9.212;2023-03-01T00:18:57;8.08;63.90
70170;DHT22;57543;45.442;9.212;2023-03-01T00:22:01;8.13;63.61
70170;DHT22;57543;45.442;9.212;2023-03-01T00:25:04;8.07;63.60
70170;DHT22;57543;45.442;9.212;2023-03-01T00:28:08;8.01;63.62
70170;DHT22;57543;45.442;9.212;2023-03-01T00:31:13;7.94;63.74
70170;DHT22;57543;45.442;9.212;2023-03-01T00:34:18;7.96;63.60
70170;DHT22;57543;45.442;9.212;2023-03-01T00:37:23;8.10;63.40
70170;DHT22;57543;45.442;9.212;2023-03-01T00:40:28;8.07;63.31
70170;DHT22;57543;45.442;9.212;2023-03-01T00:43:31;8.03;63.58
70170;DHT22;57543;45.442;9.212;2023-03-01T00:46:39;8.01;63.56
70170;DHT22;57543;45.442;9.212;2023-03-01T00:49:43;8.06;63.56
70170;DHT22;57543;45.442;9.212;2023-03-01T00:52:46;8.06;63.49
70170;DHT22;57543;45.442;9.212;2023-03-01T00:55:50;8.04;63.59
70170;DHT22;57543;45.442;9.212;2023-03-01T00:58:53;8.03;63.58
70170;DHT22;57543;45.442;9.212;2023-03-01T01:01:57;8.01;63.70
70170;DHT22;57543;45.442;9.212;2023-03-01T01:05:03;8.03;63.65
70170;DHT22;57543;45.442;9.212;2023-03-01T01:08:07;8.04;63.72
70170;DHT22;57543;45.442;9.212;2023-03-01T01:11:13;8.01;63.89
70170;DHT22;57543;45.442;9.212;2023-03-01T01:14:18;7.99;63.95
70170;DHT22;57543;45.442;9.212;2023-03-01T01:17:22;7.96;64.08
70170;DHT22;57543;45.442;9.212;2023-03-01T01:20:25;7.96;64.08
70170;DHT22;57543;45.442;9.212;2023-03-01T01:23:29;7.94;63.90
70170;DHT22;57543;45.442;9.212;2023-03-01T01:26:33;7.93;63.89
70170;DHT22;57543;45.442;9.212;2023-03-01T01:29:37;7.93;63.90
70170;DHT22;57543;45.442;9.212;2023-03-01T01:32:41;7.91;63.93
70170;DHT22;57543;45.442;9.212;2023-03-01T01:35:45;7.89;63.74
70170;DHT22;57543;45.442;9.212;2023-03-01T01:38:49;7.91;63.60
70170;DHT22;57543;45.442;9.212;2023-03-01T01:41:52;7.91;63.52
70170;DHT22;57543;45.442;9.212;2023-03-01T01:45:32;7.85;63.70
70170;DHT22;57543;45.442;9.212;2023-03-01T01:48:45;7.86;63.53
70170;DHT22;57543;45.442;9.212;2023-03-01T01:52:04;7.90;63.23
70170;DHT22;57543;45.442;9.212;2023-03-01T01:55:19;7.78;63.34
70170;DHT22;57543;45.442;9.212;2023-03-01T01:58:27;7.75;63.65
70170;DHT22;57543;45.442;9.212;2023-03-01T02:01:33;7.79;63.53
70170;DHT22;57543;45.442;9.212;2023-03-01T02:04:37;7.62;63.71
70170;DHT22;57543;45.442;9.212;2023-03-01T02:07:41;7.58;64.21
70170;DHT22;57543;45.442;9.212;2023-03-01T02:10:46;7.45;64.51
70170;DHT22;57543;45.442;9.212;2023-03-01T02:13:52;7.55;64.06
70170;DHT22;57543;45.442;9.212;2023-03-01T02:16:56;7.43;64.17
70170;DHT22;57543;45.442;9.212;2023-03-01T02:20:26;7.32;64.31
70170;DHT22;57543;45.442;9.212;2023-03-01T02:23:30;7.26;64.58
70170;DHT22;57543;45.442;9.212;2023-03-01T02:26:36;7.16;65.15
70170;DHT22;57543;45.442;9.212;2023-03-01T02:29:43;7.03;65.38
70170;DHT22;57543;45.442;9.212;2023-03-01T02:32:48;6.95;65.46
70170;DHT22;57543;45.442;9.212;2023-03-01T02:35:53;6.88;65.56
70170;DHT22;57543;45.442;9.212;2023-03-01T02:39:00;6.82;65.85
70170;DHT22;57543;45.442;9.212;2023-03-01T02:42:05;6.82;66.16
70170;DHT22;57543;45.442;9.212;2023-03-01T02:45:09;6.86;66.04
70170;DHT22;57543;45.442;9.212;2023-03-01T02:48:13;6.92;65.93
70170;DHT22;57543;45.442;9.212;2023-03-01T02:51:41;6.86;65.94
70170;DHT22;57543;45.442;9.212;2023-03-01T02:58:03;6.83;66.26
70170;DHT22;57543;45.442;9.212;2023-03-01T03:01:08;6.82;66.25
70170;DHT22;57543;45.442;9.212;2023-03-01T03:04:16;6.75;66.60
70170;DHT22;57543;45.442;9.212;2023-03-01T03:07:22;6.76;66.61
70170;DHT22;57543;45.442;9.212;2023-03-01T03:10:29;6.75;66.30
70170;DHT22;57543;45.442;9.212;2023-03-01T03:13:33;6.78;66.43
70170;DHT22;57543;45.442;9.212;2023-03-01T03:16:39;6.75;66.23
70170;DHT22;57543;45.442;9.212;2023-03-01T03:19:42;6.71;66.18
70170;DHT22;57543;45.442;9.212;2023-03-01T03:22:51;6.69;66.27
70170;DHT22;57543;45.442;9.212;2023-03-01T03:25:54;6.72;66.06
70170;DHT22;57543;45.442;9.212;2023-03-01T03:28:58;6.75;65.92
70170;DHT22;57543;45.442;9.212;2023-03-01T03:32:02;6.68;66.38
70170;DHT22;57543;45.442;9.212;2023-03-01T03:35:08;6.64;66.69
70170;DHT22;57543;45.442;9.212;2023-03-01T03:38:16;6.61;66.83
70170;DHT22;57543;45.442;9.212;2023-03-01T03:41:22;6.58;66.94
70170;DHT22;57543;45.442;9.212;2023-03-01T03:44:26;6.51;66.55
70170;DHT22;57543;45.442;9.212;2023-03-01T03:47:32;6.59;66.27
70170;DHT22;57543;45.442;9.212;2023-03-01T03:50:37;6.59;66.07
70170;DHT22;57543;45.442;9.212;2023-03-01T03:53:41;6.56;66.38
70170;DHT22;57543;45.442;9.212;2023-03-01T03:56:46;6.54;66.68
70170;DHT22;57543;45.442;9.212;2023-03-01T03:59:49;6.45;67.01
70170;DHT22;57543;45.442;9.212;2023-03-01T04:02:53;6.41;66.98
70170;DHT22;57543;45.442;9.212;2023-03-01T04:06:01;6.37;67.00
70170;DHT22;57543;45.442;9.212;2023-03-01T04:09:06;6.37;66.80
70170;DHT22;57543;45.442;9.212;2023-03-01T04:12:10;6.35;67.35
70170;DHT22;57543;45.442;9.212;2023-03-01T04:15:13;6.28;67.52
70170;DHT22;57543;45.442;9.212;2023-03-01T04:18:19;6.20;67.74
70170;DHT22;57543;45.442;9.212;2023-03-01T04:21:22;6.23;67.07
70170;DHT22;57543;45.442;9.212;2023-03-01T04:24:26;6.30;66.93
70170;DHT22;57543;45.442;9.212;2023-03-01T04:27:29;6.30;67.19
70170;DHT22;57543;45.442;9.212;2023-03-01T04:30:33;6.24;67.12
70170;DHT22;57543;45.442;9.212;2023-03-01T04:33:44;6.17;67.03
70170;DHT22;57543;45.442;9.212;2023-03-01T04:36:48;6.11;67.46
70170;DHT22;57543;45.442;9.212;2023-03-01T04:39:51;6.11;67.58
70170;DHT22;57543;45.442;9.212;2023-03-01T04:42:55;6.10;67.69
70170;DHT22;57543;45.442;9.212;2023-03-01T04:46:12;6.00;67.77
70170;DHT22;57543;45.442;9.212;2023-03-01T04:49:15;5.98;68.06
70170;DHT22;57543;45.442;9.212;2023-03-01T04:52:19;5.96;68.10
70170;DHT22;57543;45.442;9.212;2023-03-01T04:55:22;5.98;67.79
70170;DHT22;57543;45.442;9.212;2023-03-01T04:58:28;5.99;67.65
70170;DHT22;57543;45.442;9.212;2023-03-01T05:01:32;6.02;67.28
70170;DHT22;57543;45.442;9.212;2023-03-01T05:04:36;6.00;67.34
70170;DHT22;57543;45.442;9.212;2023-03-01T05:07:39;5.93;67.51
70170;DHT22;57543;45.442;9.212;2023-03-01T05:10:49;5.99;63.84
70170;DHT22;57543;45.442;9.212;2023-03-01T05:13:53;6.09;62.18
70170;DHT22;57543;45.442;9.212;2023-03-01T05:16:58;6.23;61.62
70170;DHT22;57543;45.442;9.212;2023-03-01T05:20:07;6.23;62.78
70170;DHT22;57543;45.442;9.212;2023-03-01T05:23:12;6.07;62.72
70170;DHT22;57543;45.442;9.212;2023-03-01T05:26:17;6.21;62.16
70170;DHT22;57543;45.442;9.212;2023-03-01T05:29:22;6.35;61.15
70170;DHT22;57543;45.442;9.212;2023-03-01T05:32:28;6.44;61.34
70170;DHT22;57543;45.442;9.212;2023-03-01T05:35:35;6.46;61.29
70170;DHT22;57543;45.442;9.212;2023-03-01T05:38:39;6.49;60.77
70170;DHT22;57543;45.442;9.212;2023-03-01T05:41:45;6.49;61.09
70170;DHT22;57543;45.442;9.212;2023-03-01T05:44:48;6.46;61.95
70170;DHT22;57543;45.442;9.212;2023-03-01T05:47:52;6.41;62.43
70170;DHT22;57543;45.442;9.212;2023-03-01T05:50:59;6.37;62.02
70170;DHT22;57543;45.442;9.212;2023-03-01T05:54:03;6.28;62.62
70170;DHT22;57543;45.442;9.212;2023-03-01T05:57:09;6.28;62.48
70170;DHT22;57543;45.442;9.212;2023-03-01T06:00:14;6.33;62.52
70170;DHT22;57543;45.442;9.212;2023-03-01T06:03:19;6.30;62.75
70170;DHT22;57543;45.442;9.212;2023-03-01T06:06:23;6.18;62.89
70170;DHT22;57543;45.442;9.212;2023-03-01T06:09:27;6.24;61.94
70170;DHT22;57543;45.442;9.212;2023-03-01T06:12:33;6.24;62.39
70170;DHT22;57543;45.442;9.212;2023-03-01T06:15:37;6.21;60.46
70170;DHT22;57543;45.442;9.212;2023-03-01T06:18:40;6.24;60.91
70170;DHT22;57543;45.442;9.212;2023-03-01T06:21:44;6.31;61.51
70170;DHT22;57543;45.442;9.212;2023-03-01T06:24:48;6.35;60.41
70170;DHT22;57543;45.442;9.212;2023-03-01T06:27:53;6.28;58.76
70170;DHT22;57543;45.442;9.212;2023-03-01T06:30:57;6.41;58.78
70170;DHT22;57543;45.442;9.212;2023-03-01T06:34:00;6.45;59.57
70170;DHT22;57543;45.442;9.212;2023-03-01T06:37:04;6.49;59.44
70170;DHT22;57543;45.442;9.212;2023-03-01T06:40:09;6.73;58.69
70170;DHT22;57543;45.442;9.212;2023-03-01T06:43:14;6.81;58.92
70170;DHT22;57543;45.442;9.212;2023-03-01T06:46:18;6.90;58.76
70170;DHT22;57543;45.442;9.212;2023-03-01T06:49:21;6.89;59.35
70170;DHT22;57543;45.442;9.212;2023-03-01T06:52:25;6.95;58.17
70170;DHT22;57543;45.442;9.212;2023-03-01T06:55:30;6.99;57.57
70170;DHT22;57543;45.442;9.212;2023-03-01T06:58:34;6.95;58.03
70170;DHT22;57543;45.442;9.212;2023-03-01T07:01:37;6.97;59.36
70170;DHT22;57543;45.442;9.212;2023-03-01T07:04:42;7.07;57.86
70170;DHT22;57543;45.442;9.212;2023-03-01T07:07:46;7.13;56.84
70170;DHT22;57543;45.442;9.212;2023-03-01T07:10:57;7.09;57.22
70170;DHT22;57543;45.442;9.212;2023-03-01T07:14:01;7.14;57.75
70170;DHT22;57543;45.442;9.212;2023-03-01T07:17:05;7.24;57.67
70170;DHT22;57543;45.442;9.212;2023-03-01T07:20:09;7.20;56.64
70170;DHT22;57543;45.442;9.212;2023-03-01T07:23:13;7.16;55.65
70170;DHT22;57543;45.442;9.212;2023-03-01T07:26:17;7.03;56.32
70170;DHT22;57543;45.442;9.212;2023-03-01T07:29:20;6.99;56.39
70170;DHT22;57543;45.442;9.212;2023-03-01T07:32:23;7.01;55.90
70170;DHT22;57543;45.442;9.212;2023-03-01T07:35:27;7.01;57.35
70170;DHT22;57543;45.442;9.212;2023-03-01T07:38:31;7.06;57.84
70170;DHT22;57543;45.442;9.212;2023-03-01T07:41:35;7.09;57.01
70170;DHT22;57543;45.442;9.212;2023-03-01T07:44:39;7.13;56.52
70170;DHT22;57543;45.442;9.212;2023-03-01T07:47:42;7.14;56.95
70170;DHT22;57543;45.442;9.212;2023-03-01T07:50:45;7.23;56.59
70170;DHT22;57543;45.442;9.212;2023-03-01T07:53:48;7.34;57.23
70170;DHT22;57543;45.442;9.212;2023-03-01T07:56:52;7.32;55.94
70170;DHT22;57543;45.442;9.212;2023-03-01T07:59:58;7.45;55.57
70170;DHT22;57543;45.442;9.212;2023-03-01T08:03:01;7.63;54.90
70170;DHT22;57543;45.442;9.212;2023-03-01T08:06:07;7.85;53.91
70170;DHT22;57543;45.442;9.212;2023-03-01T08:09:12;8.14;53.27
70170;DHT22;57543;45.442;9.212;2023-03-01T08:12:16;8.72;51.50
70170;DHT22;57543;45.442;9.212;2023-03-01T08:15:22;9.20;50.88
70170;DHT22;57543;45.442;9.212;2023-03-01T08:18:26;9.35;50.17
70170;DHT22;57543;45.442;9.212;2023-03-01T08:21:29;9.28;50.26
70170;DHT22;57543;45.442;9.212;2023-03-01T08:24:33;9.04;51.03
70170;DHT22;57543;45.442;9.212;2023-03-01T08:27:37;9.00;50.84
70170;DHT22;57543;45.442;9.212;2023-03-01T08:30:41;8.97;51.02
70170;DHT22;57543;45.442;9.212;2023-03-01T08:33:46;8.59;52.62
70170;DHT22;57543;45.442;9.212;2023-03-01T08:36:54;8.48;52.42
70170;DHT22;57543;45.442;9.212;2023-03-01T08:39:59;8.73;52.14
70170;DHT22;57543;45.442;9.212;2023-03-01T08:43:03;8.72;50.93
70170;DHT22;57543;45.442;9.212;2023-03-01T08:46:07;8.40;51.30
70170;DHT22;57543;45.442;9.212;2023-03-01T08:49:14;8.28;51.60
70170;DHT22;57543;45.442;9.212;2023-03-01T08:52:19;8.35;52.18
70170;DHT22;57543;45.442;9.212;2023-03-01T08:55:23;8.46;52.22
70170;DHT22;57543;45.442;9.212;2023-03-01T08:58:27;8.53;51.77
70170;DHT22;57543;45.442;9.212;2023-03-01T09:01:31;8.62;51.84
70170;DHT22;57543;45.442;9.212;2023-03-01T09:04:34;8.48;51.87
70170;DHT22;57543;45.442;9.212;2023-03-01T09:07:38;8.38;51.87
70170;DHT22;57543;45.442;9.212;2023-03-01T09:10:45;8.40;52.51
70170;DHT22;57543;45.442;9.212;2023-03-01T09:13:52;8.61;52.65
70170;DHT22;57543;45.442;9.212;2023-03-01T09:16:56;8.69;53.20
70170;DHT22;57543;45.442;9.212;2023-03-01T09:20:00;8.75;53.67
70170;DHT22;57543;45.442;9.212;2023-03-01T09:23:04;8.66;55.68
70170;DHT22;57543;45.442;9.212;2023-03-01T09:26:09;8.79;55.63
70170;DHT22;57543;45.442;9.212;2023-03-01T09:29:13;8.84;56.64
70170;DHT22;57543;45.442;9.212;2023-03-01T09:32:17;8.84;56.91
70170;DHT22;57543;45.442;9.212;2023-03-01T09:35:21;8.65;57.56
70170;DHT22;57543;45.442;9.212;2023-03-01T09:38:26;8.70;57.06
70170;DHT22;57543;45.442;9.212;2023-03-01T09:41:44;8.87;56.44
70170;DHT22;57543;45.442;9.212;2023-03-01T09:44:58;8.91;56.53
70170;DHT22;57543;45.442;9.212;2023-03-01T09:48:06;9.04;56.35
70170;DHT22;57543;45.442;9.212;2023-03-01T09:51:18;9.23;55.98
70170;DHT22;57543;45.442;9.212;2023-03-01T09:54:23;9.25;55.23
70170;DHT22;57543;45.442;9.212;2023-03-01T09:57:28;9.38;53.75
70170;DHT22;57543;45.442;9.212;2023-03-01T10:00:42;9.52;54.04
70170;DHT22;57543;45.442;9.212;2023-03-01T10:04:09;9.62;52.19
70170;DHT22;57543;45.442;9.212;2023-03-01T10:07:29;9.66;51.73
70170;DHT22;57543;45.442;9.212;2023-03-01T10:10:37;9.68;52.53
70170;DHT22;57543;45.442;9.212;2023-03-01T10:13:48;9.91;51.60
70170;DHT22;57543;45.442;9.212;2023-03-01T10:17:25;10.24;51.31
70170;DHT22;57543;45.442;9.212;2023-03-01T10:20:53;10.48;50.69
70170;DHT22;57543;45.442;9.212;2023-03-01T10:24:08;10.69;49.97
70170;DHT22;57543;45.442;9.212;2023-03-01T10:30:52;11.12;49.24
70170;DHT22;57543;45.442;9.212;2023-03-01T10:33:56;11.48;48.16
70170;DHT22;57543;45.442;9.212;2023-03-01T10:37:13;11.87;47.50
70170;DHT22;57543;45.442;9.212;2023-03-01T10:40:17;12.13;47.42
70170;DHT22;57543;45.442;9.212;2023-03-01T10:43:24;12.16;47.65
70170;DHT22;57543;45.442;9.212;2023-03-01T10:46:34;12.25;46.94
70170;DHT22;57543;45.442;9.212;2023-03-01T10:49:38;12.05;46.99
70170;DHT22;57543;45.442;9.212;2023-03-01T10:52:42;11.63;48.49
70170;DHT22;57543;45.442;9.212;2023-03-01T10:55:46;11.48;48.29
70170;DHT22;57543;45.442;9.212;2023-03-01T10:59:05;11.25;50.38
70170;DHT22;57543;45.442;9.212;2023-03-01T11:02:30;11.08;49.02
70170;DHT22;57543;45.442;9.212;2023-03-01T11:05:36;10.75;50.23
70170;DHT22;57543;45.442;9.212;2023-03-01T11:08:43;10.60;50.25
70170;DHT22;57543;45.442;9.212;2023-03-01T11:12:00;10.56;49.92
70170;DHT22;57543;45.442;9.212;2023-03-01T11:15:03;10.59;50.00
70170;DHT22;57543;45.442;9.212;2023-03-01T11:18:20;10.60;50.75
70170;DHT22;57543;45.442;9.212;2023-03-01T11:21:25;10.53;49.93
70170;DHT22;57543;45.442;9.212;2023-03-01T11:24:38;10.53;50.63
70170;DHT22;57543;45.442;9.212;2023-03-01T11:27:44;10.52;50.55
70170;DHT22;57543;45.442;9.212;2023-03-01T11:31:21;10.27;51.34
70170;DHT22;57543;45.442;9.212;2023-03-01T11:34:39;10.31;51.13
70170;DHT22;57543;45.442;9.212;2023-03-01T11:37:58;10.44;50.73
70170;DHT22;57543;45.442;9.212;2023-03-01T11:41:10;10.50;50.26
70170;DHT22;57543;45.442;9.212;2023-03-01T11:44:23;10.42;50.44
70170;DHT22;57543;45.442;9.212;2023-03-01T11:47:50;10.41;51.00
70170;DHT22;57543;45.442;9.212;2023-03-01T11:51:02;10.38;50.68
70170;DHT22;57543;45.442;9.212;2023-03-01T11:54:33;10.22;51.61
70170;DHT22;57543;45.442;9.212;2023-03-01T12:01:02;10.15;52.14
70170;DHT22;57543;45.442;9.212;2023-03-01T12:07:49;10.24;52.43
70170;DHT22;57543;45.442;9.212;2023-03-01T12:17:56;10.49;52.26
70170;DHT22;57543;45.442;9.212;2023-03-01T12:24:26;10.59;51.89
70170;DHT22;57543;45.442;9.212;2023-03-01T12:34:37;10.48;52.22
70170;DHT22;57543;45.442;9.212;2023-03-01T12:37:59;10.48;52.08
70170;DHT22;57543;45.442;9.212;2023-03-01T12:44:26;10.52;52.22
70170;DHT22;57543;45.442;9.212;2023-03-01T12:48:04;10.53;51.61
70170;DHT22;57543;45.442;9.212;2023-03-01T12:51:15;10.52;51.28
70170;DHT22;57543;45.442;9.212;2023-03-01T12:54:40;10.48;51.23
70170;DHT22;57543;45.442;9.212;2023-03-01T12:57:59;10.46;51.84
70170;DHT22;57543;45.442;9.212;2023-03-01T13:04:33;10.48;51.66
70170;DHT22;57543;45.442;9.212;2023-03-01T13:07:53;10.48;51.38
70170;DHT22;57543;45.442;9.212;2023-03-01T13:11:06;10.08;52.22
70170;DHT22;57543;45.442;9.212;2023-03-01T13:17:40;10.35;52.00
70170;DHT22;57543;45.442;9.212;2023-03-01T13:21:11;10.45;51.69
70170;DHT22;57543;45.442;9.212;2023-03-01T13:24:40;10.45;52.01
70170;DHT22;57543;45.442;9.212;2023-03-01T13:27:46;10.37;52.26
70170;DHT22;57543;45.442;9.212;2023-03-01T13:30:49;10.42;52.63
70170;DHT22;57543;45.442;9.212;2023-03-01T13:33:57;10.31;52.51
70170;DHT22;57543;45.442;9.212;2023-03-01T13:37:19;10.20;53.25
70170;DHT22;57543;45.442;9.212;2023-03-01T13:43:30;10.14;53.70
70170;DHT22;57543;45.442;9.212;2023-03-01T13:46:34;10.17;53.54
70170;DHT22;57543;45.442;9.212;2023-03-01T13:49:44;10.21;53.48
70170;DHT22;57543;45.442;9.212;2023-03-01T13:52:57;10.27;53.59
70170;DHT22;57543;45.442;9.212;2023-03-01T13:56:15;10.28;53.51
70170;DHT22;57543;45.442;9.212;2023-03-01T13:59:21;10.37;53.33
70170;DHT22;57543;45.442;9.212;2023-03-01T14:02:26;10.21;53.48
70170;DHT22;57543;45.442;9.212;2023-03-01T14:05:30;10.28;53.41
70170;DHT22;57543;45.442;9.212;2023-03-01T14:08:35;10.21;53.16
70170;DHT22;57543;45.442;9.212;2023-03-01T14:12:10;10.15;53.69
70170;DHT22;57543;45.442;9.212;2023-03-01T14:15:33;10.13;53.87
70170;DHT22;57543;45.442;9.212;2023-03-01T14:22:18;9.98;54.02
70170;DHT22;57543;45.442;9.212;2023-03-01T14:25:25;9.98;54.31
70170;DHT22;57543;45.442;9.212;2023-03-01T14:28:33;10.03;54.23
70170;DHT22;57543;45.442;9.212;2023-03-01T14:31:40;9.89;54.63
70170;DHT22;57543;45.442;9.212;2023-03-01T14:34:48;9.90;54.51
70170;DHT22;57543;45.442;9.212;2023-03-01T14:37:51;10.00;54.67
70170;DHT22;57543;45.442;9.212;2023-03-01T14:40:59;9.97;54.68
70170;DHT22;57543;45.442;9.212;2023-03-01T14:44:06;9.90;54.97
70170;DHT22;57543;45.442;9.212;2023-03-01T14:47:16;9.82;55.19
70170;DHT22;57543;45.442;9.212;2023-03-01T14:50:29;9.87;55.19
70170;DHT22;57543;45.442;9.212;2023-03-01T14:53:33;9.90;55.50
70170;DHT22;57543;45.442;9.212;2023-03-01T14:56:45;9.87;55.00
70170;DHT22;57543;45.442;9.212;2023-03-01T14:59:52;9.87;55.35
70170;DHT22;57543;45.442;9.212;2023-03-01T15:03:04;9.83;55.38
70170;DHT22;57543;45.442;9.212;2023-03-01T15:06:18;9.80;55.41
70170;DHT22;57543;45.442;9.212;2023-03-01T15:09:23;9.86;55.54
70170;DHT22;57543;45.442;9.212;2023-03-01T15:15:47;9.73;55.56
70170;DHT22;57543;45.442;9.212;2023-03-01T15:19:06;9.75;55.90
70170;DHT22;57543;45.442;9.212;2023-03-01T15:22:15;9.82;55.87
70170;DHT22;57543;45.442;9.212;2023-03-01T15:25:22;9.87;55.48
70170;DHT22;57543;45.442;9.212;2023-03-01T15:28:29;9.75;55.09
70170;DHT22;57543;45.442;9.212;2023-03-01T15:31:37;9.79;55.42
70170;DHT22;57543;45.442;9.212;2023-03-01T15:34:42;9.69;55.25
70170;DHT22;57543;45.442;9.212;2023-03-01T15:37:47;9.69;55.64
70170;DHT22;57543;45.442;9.212;2023-03-01T15:40:52;9.72;55.75
70170;DHT22;57543;45.442;9.212;2023-03-01T15:43:59;9.55;55.70
70170;DHT22;57543;45.442;9.212;2023-03-01T15:47:39;9.49;55.71
70170;DHT22;57543;45.442;9.212;2023-03-01T15:50:43;9.58;55.77
70170;DHT22;57543;45.442;9.212;2023-03-01T15:53:51;9.51;55.92
70170;DHT22;57543;45.442;9.212;2023-03-01T15:56:56;9.39;56.15
70170;DHT22;57543;45.442;9.212;2023-03-01T16:00:03;9.38;56.08
70170;DHT22;57543;45.442;9.212;2023-03-01T16:03:14;9.34;56.00
70170;DHT22;57543;45.442;9.212;2023-03-01T16:06:24;9.43;55.91
70170;DHT22;57543;45.442;9.212;2023-03-01T16:09:28;9.42;55.74
70170;DHT22;57543;45.442;9.212;2023-03-01T16:12:32;9.41;55.73
70170;DHT22;57543;45.442;9.212;2023-03-01T16:15:35;9.48;55.24
70170;DHT22;57543;45.442;9.212;2023-03-01T16:18:39;9.51;55.47
70170;DHT22;57543;45.442;9.212;2023-03-01T16:21:43;9.55;55.59
70170;DHT22;57543;45.442;9.212;2023-03-01T16:24:50;9.55;55.74
70170;DHT22;57543;45.442;9.212;2023-03-01T16:27:53;9.53;55.87
70170;DHT22;57543;45.442;9.212;2023-03-01T16:30:58;9.46;56.13
70170;DHT22;57543;45.442;9.212;2023-03-01T16:34:04;9.34;56.43
70170;DHT22;57543;45.442;9.212;2023-03-01T16:37:10;9.42;56.32
70170;DHT22;57543;45.442;9.212;2023-03-01T16:40:23;9.46;56.66
70170;DHT22;57543;45.442;9.212;2023-03-01T16:43:27;9.48;57.03
70170;DHT22;57543;45.442;9.212;2023-03-01T16:46:32;9.58;57.13
70170;DHT22;57543;45.442;9.212;2023-03-01T16:49:35;9.51;57.58
70170;DHT22;57543;45.442;9.212;2023-03-01T16:52:39;9.41;58.45
70170;DHT22;57543;45.442;9.212;2023-03-01T16:55:53;9.35;58.92
70170;DHT22;57543;45.442;9.212;2023-03-01T16:58:56;9.01;60.55
70170;DHT22;57543;45.442;9.212;2023-03-01T17:02:00;8.89;61.50
70170;DHT22;57543;45.442;9.212;2023-03-01T17:05:04;8.83;61.81
70170;DHT22;57543;45.442;9.212;2023-03-01T17:08:08;8.79;63.85
70170;DHT22;57543;45.442;9.212;2023-03-01T17:11:17;8.63;65.68
70170;DHT22;57543;45.442;9.212;2023-03-01T17:14:21;8.68;66.50
70170;DHT22;57543;45.442;9.212;2023-03-01T17:17:25;8.52;67.83
70170;DHT22;57543;45.442;9.212;2023-03-01T17:20:29;8.51;68.09
70170;DHT22;57543;45.442;9.212;2023-03-01T17:23:34;8.49;67.40
70170;DHT22;57543;45.442;9.212;2023-03-01T17:26:38;8.51;68.61
70170;DHT22;57543;45.442;9.212;2023-03-01T17:29:42;8.48;69.97
70170;DHT22;57543;45.442;9.212;2023-03-01T17:32:46;8.38;69.32
70170;DHT22;57543;45.442;9.212;2023-03-01T17:35:49;8.17;69.52
70170;DHT22;57543;45.442;9.212;2023-03-01T17:38:53;8.27;70.14
70170;DHT22;57543;45.442;9.212;2023-03-01T17:41:57;8.06;72.02
70170;DHT22;57543;45.442;9.212;2023-03-01T17:45:00;8.07;72.97
70170;DHT22;57543;45.442;9.212;2023-03-01T17:48:05;8.17;73.31
70170;DHT22;57543;45.442;9.212;2023-03-01T17:51:10;8.30;73.25
70170;DHT22;57543;45.442;9.212;2023-03-01T17:54:15;8.30;73.58
70170;DHT22;57543;45.442;9.212;2023-03-01T17:57:18;8.33;73.61
70170;DHT22;57543;45.442;9.212;2023-03-01T18:00:25;8.33;74.04
70170;DHT22;57543;45.442;9.212;2023-03-01T18:03:29;8.30;74.07
70170;DHT22;57543;45.442;9.212;2023-03-01T18:06:34;8.34;73.92
70170;DHT22;57543;45.442;9.212;2023-03-01T18:09:38;8.20;75.04
70170;DHT22;57543;45.442;9.212;2023-03-01T18:12:42;8.10;74.85
70170;DHT22;57543;45.442;9.212;2023-03-01T18:15:45;8.10;75.15
70170;DHT22;57543;45.442;9.212;2023-03-01T18:18:53;7.82;76.11
70170;DHT22;57543;45.442;9.212;2023-03-01T18:21:57;7.82;76.19
70170;DHT22;57543;45.442;9.212;2023-03-01T18:25:00;7.75;77.11
70170;DHT22;57543;45.442;9.212;2023-03-01T18:28:04;7.65;78.00
70170;DHT22;57543;45.442;9.212;2023-03-01T18:31:09;7.56;77.50
70170;DHT22;57543;45.442;9.212;2023-03-01T18:34:13;7.65;77.79
70170;DHT22;57543;45.442;9.212;2023-03-01T18:37:16;7.66;77.68
70170;DHT22;57543;45.442;9.212;2023-03-01T18:40:20;7.85;76.55
70170;DHT22;57543;45.442;9.212;2023-03-01T18:43:24;7.90;74.87
70170;DHT22;57543;45.442;9.212;2023-03-01T18:46:32;7.73;73.60
70170;DHT22;57543;45.442;9.212;2023-03-01T18:49:35;7.56;74.32
70170;DHT22;57543;45.442;9.212;2023-03-01T18:52:39;7.54;75.15
70170;DHT22;57543;45.442;9.212;2023-03-01T18:55:43;7.56;75.42
70170;DHT22;57543;45.442;9.212;2023-03-01T18:58:47;7.50;76.77
70170;DHT22;57543;45.442;9.212;2023-03-01T19:01:51;7.50;75.31
70170;DHT22;57543;45.442;9.212;2023-03-01T19:04:57;7.51;76.35
70170;DHT22;57543;45.442;9.212;2023-03-01T19:08:01;7.54;75.93
70170;DHT22;57543;45.442;9.212;2023-03-01T19:11:05;7.48;74.91
70170;DHT22;57543;45.442;9.212;2023-03-01T19:14:09;7.50;74.55
70170;DHT22;57543;45.442;9.212;2023-03-01T19:17:12;7.20;75.06
70170;DHT22;57543;45.442;9.212;2023-03-01T19:20:16;7.03;75.73
70170;DHT22;57543;45.442;9.212;2023-03-01T19:23:22;7.03;76.49
70170;DHT22;57543;45.442;9.212;2023-03-01T19:26:26;7.07;75.84
70170;DHT22;57543;45.442;9.212;2023-03-01T19:29:30;6.82;76.85
70170;DHT22;57543;45.442;9.212;2023-03-01T19:32:34;6.96;76.95
70170;DHT22;57543;45.442;9.212;2023-03-01T19:35:37;7.07;76.94
70170;DHT22;57543;45.442;9.212;2023-03-01T19:38:42;6.90;76.53
70170;DHT22;57543;45.442;9.212;2023-03-01T19:41:46;6.75;77.15
70170;DHT22;57543;45.442;9.212;2023-03-01T19:44:50;6.73;77.33
70170;DHT22;57543;45.442;9.212;2023-03-01T19:47:53;6.92;77.36
70170;DHT22;57543;45.442;9.212;2023-03-01T19:50:57;7.06;77.91
70170;DHT22;57543;45.442;9.212;2023-03-01T19:54:01;7.07;78.04
70170;DHT22;57543;45.442;9.212;2023-03-01T19:57:05;7.01;76.88
70170;DHT22;57543;45.442;9.212;2023-03-01T20:00:09;6.96;77.41
70170;DHT22;57543;45.442;9.212;2023-03-01T20:03:16;7.00;77.76
70170;DHT22;57543;45.442;9.212;2023-03-01T20:06:20;7.14;77.51
70170;DHT22;57543;45.442;9.212;2023-03-01T20:09:24;7.26;77.16
70170;DHT22;57543;45.442;9.212;2023-03-01T20:12:27;7.31;76.88
70170;DHT22;57543;45.442;9.212;2023-03-01T20:15:31;7.44;76.55
70170;DHT22;57543;45.442;9.212;2023-03-01T20:18:35;7.51;76.01
70170;DHT22;57543;45.442;9.212;2023-03-01T20:21:39;7.55;75.59
70170;DHT22;57543;45.442;9.212;2023-03-01T20:24:43;7.50;75.10
70170;DHT22;57543;45.442;9.212;2023-03-01T20:27:46;7.43;75.58
70170;DHT22;57543;45.442;9.212;2023-03-01T20:30:50;7.38;75.06
70170;DHT22;57543;45.442;9.212;2023-03-01T20:33:58;7.28;75.45
70170;DHT22;57543;45.442;9.212;2023-03-01T20:37:01;7.14;75.82
70170;DHT22;57543;45.442;9.212;2023-03-01T20:40:06;7.10;75.17
70170;DHT22;57543;45.442;9.212;2023-03-01T20:43:11;7.04;75.19
70170;DHT22;57543;45.442;9.212;2023-03-01T20:46:15;6.92;75.81